Truesdale, Iowa
Current Conditions -  °F | °C
As of 6:15 AM on Monday 24 Nov 2014 (Local Time) from KSLB Reporting Station
Overcast Overcast  
Wind Chill:   Ceiling: 1800
Heat Index: 21°   Visibility: 10mi
Dew Point: 14°   Wind: 23mph
Humidity: 74%   Direction: 310°NW
Pressure: 29.51"   Gusts: 33mph
Location:  42.73°N, 95.18°W
Report Text: KSLB 241215Z AUTO 31020G29KT 10SM BKN018 OVC033 M06/M10 A2951 RMK AO2
Loading
Personal Weather Stations






























Interactive Weather Map New forecast layout! Learn more

10-Day Weather Forecast

Advertisements
Track Severe Weather on mobile